Time;durP1;ratioP1;P1;durP2;ratioP2;P2;SDS_P1;SDS_P2;PMS_P1;PMS_P2;Temp;Humidity;BMP_temperature;BMP_pressure;BME280_temperature;BME280_humidity;BME280_pressure;Samples;Min_cycle;Max_cycle;Signal;HPM_P1;HPM_P2
2021/08/21 00:02:19;;;;;;;8.03;7.43;;;;;;;22.14;57.82;94928.59;5056994;28;21062;-78
2021/08/21 00:04:47;;;;;;;8.50;6.43;;;;;;;22.06;57.57;94926.13;5075084;28;20564;-79
2021/08/21 00:07:16;;;;;;;7.87;7.00;;;;;;;22.12;57.62;94932.50;5075392;28;20530;-79
2021/08/21 00:09:46;;;;;;;8.83;7.87;;;;;;;22.04;57.88;94933.53;5056618;28;20447;-79
2021/08/21 00:12:13;;;;;;;8.40;7.40;;;;;;;21.91;58.07;94942.25;5075067;28;20500;-79
2021/08/21 00:14:40;;;;;;;8.80;7.90;;;;;;;21.95;58.28;94942.66;5075617;28;20502;-79
2021/08/21 00:17:07;;;;;;;7.33;6.63;;;;;;;21.96;58.33;94944.31;5074997;28;20469;-79
2021/08/21 00:19:34;;;;;;;7.73;7.07;;;;;;;22.00;58.28;94936.75;5056333;28;20825;-78
2021/08/21 00:22:01;;;;;;;9.00;7.27;;;;;;;22.06;58.15;94939.47;5056416;28;20446;-79
2021/08/21 00:24:28;;;;;;;7.87;6.90;;;;;;;22.13;58.28;94945.66;5075092;28;20491;-78
2021/08/21 00:26:56;;;;;;;7.27;6.57;;;;;;;22.15;57.89;94945.47;5075313;28;20455;-79
2021/08/21 00:29:23;;;;;;;7.67;7.00;;;;;;;22.12;58.21;94952.03;5075252;28;20547;-79
2021/08/21 00:31:50;;;;;;;12.23;7.87;;;;;;;22.09;58.18;94949.78;5074811;28;20441;-78
2021/08/21 00:34:17;;;;;;;8.20;7.30;;;;;;;22.04;58.39;94944.22;5075218;28;20526;-79
2021/08/21 00:36:45;;;;;;;7.90;7.17;;;;;;;22.04;58.44;94948.72;5074281;28;20451;-79
2021/08/21 00:39:12;;;;;;;7.67;6.97;;;;;;;21.94;58.10;94949.03;5074909;28;20435;-78
2021/08/21 00:41:39;;;;;;;7.30;6.60;;;;;;;21.91;58.22;94960.94;5074708;28;20454;-78
2021/08/21 00:44:08;;;;;;;7.23;6.63;;;;;;;21.94;57.92;94960.56;5074579;28;20891;-79
2021/08/21 00:46:53;;;;;;;8.63;7.87;;;;;;;21.80;58.17;94961.53;5074503;28;20865;-79
2021/08/21 00:49:20;;;;;;;7.97;7.20;;;;;;;21.74;58.18;94962.31;5074888;28;20791;-79
2021/08/21 00:51:47;;;;;;;7.53;6.93;;;;;;;21.74;58.38;94956.97;5074637;28;20498;-78
2021/08/21 00:54:14;;;;;;;7.03;6.43;;;;;;;21.76;58.86;94951.44;5074502;28;20511;-79
2021/08/21 00:56:42;;;;;;;8.50;7.50;;;;;;;21.69;59.03;94947.91;5074349;28;20497;-78
2021/08/21 00:59:10;;;;;;;11.53;8.37;;;;;;;21.73;58.42;94957.19;5074728;28;20531;-79
2021/08/21 01:01:38;;;;;;;9.00;7.07;;;;;;;21.68;58.24;94954.25;5074665;28;20511;-78
2021/08/21 01:04:05;;;;;;;10.97;7.20;;;;;;;21.68;58.13;94959.59;5074728;28;20524;-78
2021/08/21 01:06:32;;;;;;;8.30;7.47;;;;;;;21.71;57.90;94953.88;5074146;28;20445;-78
2021/08/21 01:09:01;;;;;;;9.20;7.13;;;;;;;21.70;57.84;94958.41;5074239;28;20446;-79
2021/08/21 01:11:31;;;;;;;8.40;7.57;;;;;;;21.70;57.44;94963.75;5074045;28;20480;-78
2021/08/21 01:13:58;;;;;;;8.10;7.10;;;;;;;21.70;57.59;94958.41;5074419;28;20507;-78
2021/08/21 01:16:29;;;;;;;8.17;7.47;;;;;;;21.72;57.74;94958.19;5074416;28;20502;-79
2021/08/21 01:18:58;;;;;;;9.23;7.13;;;;;;;21.72;57.39;94960.88;5039175;28;20445;-79
2021/08/21 01:21:25;;;;;;;7.80;6.93;;;;;;;21.68;57.48;94962.25;5074213;28;20503;-79
2021/08/21 01:23:53;;;;;;;7.90;7.20;;;;;;;21.67;57.08;94957.94;5073793;28;20809;-79
2021/08/21 01:26:20;;;;;;;8.00;7.20;;;;;;;21.65;57.27;94961.63;5074117;28;20516;-78
2021/08/21 01:28:48;;;;;;;7.73;6.93;;;;;;;21.65;57.13;94961.63;5055348;28;20480;-79
2021/08/21 01:31:15;;;;;;;8.13;7.43;;;;;;;21.63;57.20;94958.34;5073824;28;20471;-79
2021/08/21 01:33:42;;;;;;;7.80;7.17;;;;;;;21.63;57.20;94963.69;5073846;28;20806;-79
2021/08/21 01:36:09;;;;;;;7.97;6.87;;;;;;;21.53;57.50;94968.56;5054904;28;20519;-78
2021/08/21 01:38:36;;;;;;;9.27;7.03;;;;;;;21.51;57.33;94969.75;5073545;28;20469;-79
2021/08/21 01:41:03;;;;;;;7.60;6.80;;;;;;;21.48;57.37;94972.84;5073660;28;20456;-79
2021/08/21 01:43:30;;;;;;;8.53;7.73;;;;;;;21.46;57.47;94975.69;5073923;28;20453;-79
2021/08/21 01:45:59;;;;;;;9.50;8.37;;;;;;;21.49;58.23;94969.13;5073108;28;20490;-79
2021/08/21 01:48:25;;;;;;;11.77;8.50;;;;;;;21.50;58.65;94973.47;5072901;28;20445;-79
2021/08/21 01:50:52;;;;;;;7.87;7.03;;;;;;;21.33;58.67;94971.06;5073316;28;20467;-78
2021/08/21 01:53:19;;;;;;;10.40;7.40;;;;;;;21.23;58.62;94970.59;5073357;28;20452;-79
2021/08/21 01:55:47;;;;;;;8.30;7.60;;;;;;;21.18;59.02;94969.50;5073487;28;20441;-79
2021/08/21 01:58:20;;;;;;;8.50;7.60;;;;;;;21.12;59.41;94972.94;5038378;28;20451;-79
2021/08/21 02:00:47;;;;;;;7.60;6.90;;;;;;;21.03;59.45;94970.38;5073381;28;20842;-79
2021/08/21 02:03:17;;;;;;;8.10;7.40;;;;;;;20.96;59.41;94974.84;5073492;28;20504;-79
2021/08/21 02:05:44;;;;;;;7.60;7.00;;;;;;;20.91;59.76;94963.94;5073250;28;20487;-78
2021/08/21 02:08:11;;;;;;;8.43;7.10;;;;;;;20.89;60.20;94968.63;5073180;28;20447;-79
2021/08/21 02:10:38;;;;;;;8.20;7.50;;;;;;;20.88;60.11;94976.84;5072891;28;20487;-79
2021/08/21 02:13:05;;;;;;;7.17;6.57;;;;;;;20.90;59.86;94969.47;5073004;28;20445;-79
2021/08/21 02:15:32;;;;;;;9.13;7.13;;;;;;;20.94;60.19;94976.88;5038097;28;20463;-79
2021/08/21 02:17:59;;;;;;;8.83;7.60;;;;;;;20.94;60.27;94974.22;5073106;28;20451;-79
2021/08/21 02:20:27;;;;;;;8.07;7.37;;;;;;;20.94;60.22;94982.22;5073388;28;20441;-79
2021/08/21 02:22:55;;;;;;;7.40;6.60;;;;;;;20.96;60.29;94980.19;5072817;28;20524;-79
2021/08/21 02:25:22;;;;;;;7.90;7.10;;;;;;;20.96;60.43;94968.69;5054338;28;21051;-79
2021/08/21 02:27:58;;;;;;;7.97;7.10;;;;;;;20.97;60.34;94978.34;5073123;28;20445;-79
2021/08/21 02:30:28;;;;;;;8.23;7.40;;;;;;;20.95;60.43;94975.03;5073225;28;20928;-79
2021/08/21 02:32:54;;;;;;;8.57;7.87;;;;;;;20.92;60.85;94970.91;5073235;28;20451;-79
2021/08/21 02:35:22;;;;;;;7.10;6.40;;;;;;;20.85;60.88;94967.38;5072979;28;20457;-79
2021/08/21 02:37:50;;;;;;;7.90;7.23;;;;;;;20.83;60.91;94966.75;5073040;28;20440;-78
2021/08/21 02:40:17;;;;;;;8.00;7.30;;;;;;;20.83;60.76;94966.75;5054204;28;20447;-78
2021/08/21 02:42:44;;;;;;;7.40;6.70;;;;;;;20.83;60.81;94977.41;5073020;28;20970;-79
2021/08/21 02:45:11;;;;;;;7.37;6.67;;;;;;;20.80;60.50;94976.94;5072969;28;20507;-79
2021/08/21 02:47:38;;;;;;;8.00;7.40;;;;;;;20.79;60.59;94986.78;5073055;28;20447;-79
2021/08/21 02:50:06;;;;;;;9.63;7.70;;;;;;;20.69;60.78;94986.28;5072716;28;20455;-79
2021/08/21 02:52:33;;;;;;;8.13;7.10;;;;;;;20.68;60.74;94984.63;5073143;28;20502;-79
2021/08/21 02:55:02;;;;;;;8.00;7.30;;;;;;;20.67;60.63;94985.66;5037394;28;20461;-79
2021/08/21 02:57:29;;;;;;;8.90;7.07;;;;;;;20.69;60.17;94989.78;5072651;28;20436;-79
2021/08/21 02:59:56;;;;;;;8.60;7.80;;;;;;;20.69;59.72;94989.78;5074162;28;20826;-79
2021/08/21 03:02:22;;;;;;;7.90;6.83;;;;;;;20.62;60.27;95002.22;5076569;28;20444;-79
2021/08/21 03:04:50;;;;;;;8.00;7.30;;;;;;;20.46;61.04;94998.94;5076502;28;20480;-79
2021/08/21 03:07:16;;;;;;;8.07;7.27;;;;;;;20.39;61.38;94997.00;5076647;28;20444;-79
2021/08/21 03:09:43;;;;;;;11.90;7.00;;;;;;;20.34;61.24;94999.41;5076403;28;20932;-79
2021/08/21 03:12:12;;;;;;;7.80;7.00;;;;;;;20.36;60.91;94997.38;5076640;28;20478;-78
2021/08/21 03:14:40;;;;;;;8.13;7.33;;;;;;;20.37;61.16;94991.03;5076425;28;20547;-79
2021/08/21 03:17:10;;;;;;;7.97;7.27;;;;;;;20.30;61.46;95000.81;5076289;28;20481;-79
2021/08/21 03:19:37;;;;;;;8.70;7.80;;;;;;;20.19;62.30;95006.59;5076441;28;20441;-79
2021/08/21 03:22:04;;;;;;;8.03;7.30;;;;;;;20.23;62.24;95007.03;5075939;28;20528;-80
2021/08/21 03:24:31;;;;;;;7.10;6.50;;;;;;;20.24;62.02;95012.22;5075930;28;20450;-79
2021/08/21 03:26:58;;;;;;;7.33;6.70;;;;;;;20.25;62.15;95005.03;5057265;28;20445;-80
2021/08/21 03:29:26;;;;;;;7.67;6.50;;;;;;;20.26;62.07;95004.03;5076460;28;20749;-79
2021/08/21 03:31:53;;;;;;;6.83;6.20;;;;;;;20.29;61.75;95006.31;5076153;28;20448;-80
2021/08/21 03:34:22;;;;;;;7.93;7.13;;;;;;;20.23;61.66;95010.53;5075862;28;20820;-79
2021/08/21 03:36:50;;;;;;;8.20;7.50;;;;;;;20.10;62.11;95002.38;5075851;28;20940;-80
2021/08/21 03:39:17;;;;;;;8.57;7.37;;;;;;;20.17;61.94;95005.97;5075981;28;20448;-79
2021/08/21 03:41:44;;;;;;;8.33;7.63;;;;;;;20.17;61.93;95016.63;5076283;28;20451;-79
2021/08/21 03:44:11;;;;;;;8.10;7.40;;;;;;;20.15;62.22;95007.16;5075638;28;20443;-79
2021/08/21 03:46:40;;;;;;;8.00;7.30;;;;;;;20.10;62.40;95019.19;5075677;28;20491;-79
2021/08/21 03:49:07;;;;;;;7.93;7.33;;;;;;;20.09;62.38;95022.06;5075497;28;20446;-79
2021/08/21 03:51:36;;;;;;;10.93;6.93;;;;;;;20.09;62.74;95014.88;5075954;28;20440;-79
2021/08/21 03:54:03;;;;;;;7.67;7.07;;;;;;;20.06;62.73;95020.59;5075788;28;20463;-79
2021/08/21 03:56:30;;;;;;;8.00;7.30;;;;;;;20.08;62.50;95021.22;5075887;28;20447;-79
2021/08/21 03:58:57;;;;;;;8.30;7.20;;;;;;;20.09;62.68;95022.06;5075978;28;20444;-79
2021/08/21 04:01:24;;;;;;;7.97;7.20;;;;;;;20.10;62.59;95034.34;5075906;28;20441;-79
2021/08/21 04:03:52;;;;;;;8.10;7.30;;;;;;;20.07;62.49;95034.72;5075447;28;20535;-79
2021/08/21 04:06:20;;;;;;;7.67;7.07;;;;;;;20.09;62.58;95038.88;5075593;28;20977;-79
2021/08/21 04:08:47;;;;;;;6.70;6.20;;;;;;;20.06;62.66;95035.75;5075574;28;20449;-79
2021/08/21 04:11:14;;;;;;;8.07;7.27;;;;;;;20.15;62.63;95037.28;5074732;28;20551;-79
2021/08/21 04:13:41;;;;;;;8.20;7.40;;;;;;;20.29;61.91;95036.47;5075445;28;20455;-79
2021/08/21 04:16:08;;;;;;;7.43;6.83;;;;;;;20.30;61.90;95038.13;5056593;28;20440;-79
2021/08/21 04:18:35;;;;;;;15.43;7.23;;;;;;;20.37;61.18;95039.00;5075072;28;20449;-79
2021/08/21 04:21:04;;;;;;;13.10;7.30;;;;;;;20.56;61.38;95052.81;5075216;28;20444;-79
2021/08/21 04:23:32;;;;;;;8.47;7.47;;;;;;;20.79;61.87;95053.47;5075069;28;20947;-79
2021/08/21 04:26:00;;;;;;;12.43;8.50;;;;;;;21.11;61.16;95054.03;5074947;28;20481;-79
2021/08/21 04:28:27;;;;;;;8.07;7.30;;;;;;;21.57;60.59;95049.09;5074852;28;20454;-79
2021/08/21 04:30:55;;;;;;;10.30;9.30;;;;;;;22.08;57.67;95056.88;5039951;28;20816;-79
2021/08/21 04:33:22;;;;;;;10.57;6.70;;;;;;;22.57;57.17;95067.41;5074633;28;20815;-79
2021/08/21 04:35:49;;;;;;;7.20;6.50;;;;;;;22.93;55.50;95058.31;5074805;28;20447;-79
2021/08/21 04:38:18;;;;;;;7.37;6.30;;;;;;;23.24;54.13;95063.09;5055901;28;20447;-80
2021/08/21 04:40:46;;;;;;;13.70;6.13;;;;;;;23.23;52.87;95062.28;5074790;28;20455;-79
2021/08/21 04:43:14;;;;;;;7.70;6.90;;;;;;;23.26;52.17;95056.50;5074899;28;20978;-79
2021/08/21 04:45:41;;;;;;;7.10;6.40;;;;;;;23.39;51.83;95061.03;5074521;28;20487;-79
2021/08/21 04:48:09;;;;;;;6.90;6.30;;;;;;;23.61;51.16;95057.19;5074460;28;20910;-79
2021/08/21 04:50:36;;;;;;;7.23;6.13;;;;;;;23.92;50.23;95067.25;5074945;28;20453;-79
2021/08/21 04:53:04;;;;;;;6.97;5.70;;;;;;;24.19;49.70;95057.31;5074608;28;20515;-79
2021/08/21 04:55:32;;;;;;;9.50;6.30;;;;;;;24.43;49.22;95058.53;5055729;28;20458;-79
2021/08/21 04:57:59;;;;;;;5.90;5.40;;;;;;;24.59;47.99;95057.25;5074400;28;20443;-79
2021/08/21 05:00:28;;;;;;;7.20;6.30;;;;;;;24.79;47.63;95057.97;5074241;28;20454;-78
2021/08/21 05:02:58;;;;;;;8.23;5.83;;;;;;;25.07;47.27;95057.63;5074141;28;20924;-78
2021/08/21 05:05:26;;;;;;;9.30;6.70;;;;;;;25.15;47.43;95054.69;5074505;28;20483;-78
2021/08/21 05:07:53;;;;;;;8.90;5.83;;;;;;;25.43;47.04;95059.69;5074137;28;20460;-79
2021/08/21 05:10:20;;;;;;;10.37;6.30;;;;;;;25.66;46.10;95064.47;5055306;28;20449;-79
2021/08/21 05:12:48;;;;;;;8.67;6.57;;;;;;;25.82;46.52;95063.16;5073900;28;20452;-78
2021/08/21 05:15:16;;;;;;;10.73;6.47;;;;;;;25.84;46.40;95059.19;5074517;28;20456;-79
2021/08/21 05:17:43;;;;;;;7.00;6.23;;;;;;;25.97;46.59;95065.47;5055340;28;20455;-79
2021/08/21 05:20:16;;;;;;;7.47;6.67;;;;;;;26.13;46.75;95064.91;5073878;28;20452;-78
2021/08/21 05:23:04;;;;;;;6.53;5.83;;;;;;;25.87;46.64;95064.13;5055075;28;20460;-78
2021/08/21 05:25:31;;;;;;;8.90;6.30;;;;;;;26.06;47.49;95064.16;5073745;28;20484;-79
2021/08/21 05:27:59;;;;;;;7.00;6.30;;;;;;;26.04;46.79;95071.66;5073630;28;20816;-78
2021/08/21 05:30:28;;;;;;;7.23;5.63;;;;;;;26.01;46.57;95067.50;5073818;28;20450;-79
2021/08/21 05:32:56;;;;;;;8.90;6.10;;;;;;;26.16;46.80;95070.69;5073772;28;20904;-79
2021/08/21 05:35:23;;;;;;;8.70;6.07;;;;;;;26.23;45.96;95073.28;5073719;28;20513;-79
2021/08/21 05:37:50;;;;;;;8.13;6.30;;;;;;;26.30;46.25;95076.72;5073655;28;20517;-78
2021/08/21 05:40:17;;;;;;;11.20;5.90;;;;;;;26.30;45.69;95068.66;5073415;28;20936;-79
2021/08/21 05:42:45;;;;;;;10.20;6.80;;;;;;;26.46;46.83;95068.13;5074023;28;20620;-79
2021/08/21 05:45:13;;;;;;;6.67;5.90;;;;;;;26.62;44.51;95068.59;5073138;28;20445;-79
2021/08/21 05:47:40;;;;;;;7.77;5.63;;;;;;;26.84;44.90;95072.44;5054641;28;20446;-79
2021/08/21 05:50:08;;;;;;;7.20;6.33;;;;;;;27.09;45.23;95081.25;5073301;28;20951;-78
2021/08/21 05:52:35;;;;;;;12.70;6.13;;;;;;;27.38;44.40;95076.09;5021740;28;20571;-78
2021/08/21 05:55:02;;;;;;;11.17;5.90;;;;;;;27.67;43.75;95077.94;5073263;28;20444;-79
2021/08/21 05:57:29;;;;;;;13.77;7.10;;;;;;;27.86;43.06;95076.00;5073596;28;20468;-79
2021/08/21 05:59:56;;;;;;;7.63;6.10;;;;;;;28.05;42.47;95079.44;5073320;28;20445;-79
2021/08/21 06:02:25;;;;;;;8.40;6.53;;;;;;;28.06;41.34;95075.69;5073016;28;20533;-79
2021/08/21 06:04:52;;;;;;;13.40;5.57;;;;;;;28.02;42.00;95078.00;5073104;28;20453;-79
2021/08/21 06:07:19;;;;;;;7.33;6.63;;;;;;;27.85;41.88;95078.94;5072754;28;20983;-79
2021/08/21 06:09:46;;;;;;;10.80;5.67;;;;;;;27.89;42.92;95080.09;5073345;28;20472;-78
2021/08/21 06:12:13;;;;;;;10.27;6.00;;;;;;;27.77;41.64;95078.22;5072821;28;21043;-79
2021/08/21 06:14:40;;;;;;;6.73;5.93;;;;;;;27.97;42.44;95077.06;5037940;28;20546;-78
2021/08/21 06:17:07;;;;;;;6.80;6.13;;;;;;;27.96;41.69;95075.41;5072934;28;20441;-78
2021/08/21 06:19:37;;;;;;;14.53;5.83;;;;;;;27.63;41.73;95071.38;5072791;28;20441;-79
2021/08/21 06:22:04;;;;;;;6.23;5.63;;;;;;;27.53;42.32;95065.72;5072887;28;20456;-79
2021/08/21 06:24:31;;;;;;;6.87;5.53;;;;;;;27.62;41.52;95068.91;5072772;28;20977;-78
2021/08/21 06:26:58;;;;;;;7.23;5.70;;;;;;;27.69;40.93;95059.66;5073177;28;20486;-78
2021/08/21 06:29:26;;;;;;;11.47;5.63;;;;;;;27.84;40.97;95067.31;5072925;28;20441;-78
2021/08/21 06:31:53;;;;;;;9.20;5.60;;;;;;;28.00;41.09;95071.19;5073047;28;20444;-78
2021/08/21 06:34:19;;;;;;;15.17;6.00;;;;;;;28.20;40.18;95065.47;5072381;28;20540;-78
2021/08/21 06:36:48;;;;;;;7.07;5.07;;;;;;;28.41;41.23;95062.19;5072763;28;20459;-78
2021/08/21 06:39:15;;;;;;;5.53;4.70;;;;;;;28.59;39.42;95055.81;5037456;28;20441;-78
2021/08/21 06:41:42;;;;;;;9.57;5.37;;;;;;;28.83;39.26;95057.41;5072881;28;20445;-78
2021/08/21 06:44:09;;;;;;;6.87;6.17;;;;;;;28.96;38.96;95067.97;5072976;28;20441;-78
2021/08/21 06:46:35;;;;;;;10.73;4.90;;;;;;;29.16;39.26;95058.59;5072547;28;20489;-79
2021/08/21 06:49:02;;;;;;;7.87;4.30;;;;;;;29.22;38.15;95060.38;5072775;28;20471;-78
2021/08/21 06:51:30;;;;;;;6.43;5.80;;;;;;;28.27;38.20;95066.19;5072777;28;20992;-78
2021/08/21 06:53:59;;;;;;;5.37;4.90;;;;;;;28.09;38.66;95056.31;5072803;28;20539;-78
2021/08/21 06:56:26;;;;;;;4.80;4.50;;;;;;;28.17;39.09;95057.84;5072818;28;20449;-78
2021/08/21 06:58:53;;;;;;;4.93;4.53;;;;;;;28.36;39.82;95054.00;5053906;28;20429;-80
2021/08/21 07:01:20;;;;;;;5.53;4.57;;;;;;;28.34;37.12;95064.22;5072546;28;20443;-79
2021/08/21 07:03:46;;;;;;;5.90;5.20;;;;;;;28.13;38.25;95060.19;5072636;28;20441;-78
2021/08/21 07:06:13;;;;;;;5.13;4.73;;;;;;;27.73;38.86;95066.22;5072468;28;20481;-78
2021/08/21 07:08:40;;;;;;;13.23;5.70;;;;;;;28.05;39.04;95068.63;5072551;28;20444;-78
2021/08/21 07:11:09;;;;;;;4.90;4.50;;;;;;;28.20;39.86;95066.28;5072225;28;20478;-78
2021/08/21 07:13:35;;;;;;;4.90;4.57;;;;;;;28.54;38.12;95066.50;5072655;28;20453;-78
2021/08/21 07:16:02;;;;;;;4.83;4.33;;;;;;;28.59;38.46;95069.31;5072489;28;20452;-78
2021/08/21 07:18:29;;;;;;;5.10;4.70;;;;;;;28.39;38.11;95058.91;5072823;28;20532;-78
2021/08/21 07:20:56;;;;;;;5.90;4.50;;;;;;;28.13;39.06;95072.84;5037229;28;20451;-78
2021/08/21 07:23:24;;;;;;;5.73;4.90;;;;;;;27.53;39.68;95062.19;5037334;28;20528;-80
2021/08/21 07:25:51;;;;;;;5.40;4.90;;;;;;;27.66;40.13;95062.81;5072632;28;20444;-80
2021/08/21 07:28:19;;;;;;;5.43;5.07;;;;;;;27.79;40.12;95058.28;5072344;28;20447;-80
2021/08/21 07:30:46;;;;;;;11.43;5.10;;;;;;;27.86;39.55;95059.00;5072416;28;20808;-78
2021/08/21 07:33:13;;;;;;;5.10;4.50;;;;;;;27.87;39.53;95055.25;5053535;28;20507;-78
2021/08/21 07:35:40;;;;;;;5.47;4.97;;;;;;;28.13;39.63;95056.66;5053778;28;21008;-78
2021/08/21 07:38:07;;;;;;;4.83;4.50;;;;;;;28.48;40.51;95057.47;5072043;28;20527;-80
2021/08/21 07:40:35;;;;;;;6.40;5.07;;;;;;;28.54;39.54;95061.09;5072215;28;20443;-79
2021/08/21 07:43:02;;;;;;;5.93;4.93;;;;;;;28.85;38.83;95063.41;5072389;28;20925;-78
2021/08/21 07:45:31;;;;;;;5.23;4.50;;;;;;;29.11;39.04;95064.75;5053723;28;20464;-78
2021/08/21 07:47:58;;;;;;;10.63;4.70;;;;;;;29.17;38.58;95068.34;5056643;28;21009;-79
2021/08/21 07:50:25;;;;;;;4.57;4.10;;;;;;;29.30;38.28;95068.09;5075953;28;20447;-79
2021/08/21 07:52:52;;;;;;;4.87;4.43;;;;;;;29.45;37.70;95065.66;5075813;28;20444;-78
2021/08/21 07:55:19;;;;;;;6.20;4.83;;;;;;;29.34;37.27;95066.53;5076094;28;20441;-79
2021/08/21 07:57:45;;;;;;;6.90;4.47;;;;;;;29.05;38.41;95063.00;5075406;28;20884;-80
2021/08/21 08:00:13;;;;;;;4.97;4.57;;;;;;;28.74;38.38;95072.34;5075818;28;20450;-80
2021/08/21 08:02:45;;;;;;;6.30;4.77;;;;;;;28.83;37.76;95070.09;5075368;28;20444;-79
2021/08/21 08:05:13;;;;;;;4.67;4.13;;;;;;;29.17;38.35;95065.66;5075504;28;20453;-80
2021/08/21 08:07:40;;;;;;;7.00;4.57;;;;;;;29.25;38.10;95065.28;5075120;28;20818;-79
2021/08/21 08:10:08;;;;;;;5.73;5.13;;;;;;;29.32;36.66;95059.72;5056243;28;20481;-79
2021/08/21 08:12:35;;;;;;;4.43;4.13;;;;;;;29.43;36.41;95058.84;5075393;28;20447;-79
2021/08/21 08:15:03;;;;;;;4.37;3.83;;;;;;;29.69;36.80;95057.44;5075178;28;20449;-79
2021/08/21 08:17:30;;;;;;;4.03;3.73;;;;;;;29.80;36.11;95054.66;5075573;28;20436;-78
2021/08/21 08:19:58;;;;;;;4.87;4.47;;;;;;;29.56;36.09;95062.09;5075241;28;20943;-78
2021/08/21 08:22:26;;;;;;;5.50;4.20;;;;;;;29.65;36.17;95059.00;5075146;28;20454;-79
2021/08/21 08:24:54;;;;;;;4.40;4.10;;;;;;;29.96;35.88;95057.59;5075085;28;20451;-78
2021/08/21 08:27:21;;;;;;;5.43;4.93;;;;;;;30.22;35.34;95062.38;5074899;28;20472;-79
2021/08/21 08:29:48;;;;;;;4.70;4.00;;;;;;;30.54;34.99;95057.13;5075116;28;20465;-79
2021/08/21 08:32:15;;;;;;;5.40;5.00;;;;;;;30.81;35.19;95057.25;5074998;28;20445;-79
2021/08/21 08:34:43;;;;;;;4.17;3.90;;;;;;;31.10;35.21;95053.28;5075167;28;20444;-78
2021/08/21 08:37:12;;;;;;;5.30;4.43;;;;;;;31.21;33.13;95048.78;5074629;28;20925;-79
2021/08/21 08:39:40;;;;;;;4.57;4.10;;;;;;;31.37;33.34;95053.31;5075180;28;20449;-79
2021/08/21 08:42:09;;;;;;;5.30;4.87;;;;;;;31.43;33.30;95056.91;5074821;28;20453;-79
2021/08/21 08:44:38;;;;;;;5.43;4.43;;;;;;;31.22;33.41;95055.84;5074592;28;20453;-79
2021/08/21 08:47:05;;;;;;;7.63;4.47;;;;;;;31.14;33.75;95048.97;5074764;28;20527;-79
2021/08/21 08:49:32;;;;;;;7.50;4.73;;;;;;;31.12;32.84;95061.16;5074402;28;20445;-79
2021/08/21 08:51:59;;;;;;;13.73;4.80;;;;;;;30.98;32.83;95049.88;5074441;28;20537;-79
2021/08/21 08:54:27;;;;;;;5.17;4.60;;;;;;;31.08;33.86;95052.69;5074736;28;20445;-78
2021/08/21 08:56:54;;;;;;;4.90;4.27;;;;;;;31.24;33.12;95047.50;5074025;28;20441;-78
2021/08/21 08:59:21;;;;;;;9.10;4.63;;;;;;;31.39;32.54;95043.03;5074383;28;20932;-79
2021/08/21 09:01:48;;;;;;;5.73;4.53;;;;;;;31.18;31.78;95046.59;5055545;28;20936;-79
2021/08/21 09:04:20;;;;;;;4.60;4.20;;;;;;;30.81;33.03;95041.00;5074419;28;20459;-78
2021/08/21 09:06:47;;;;;;;5.10;4.17;;;;;;;31.02;32.82;95040.16;5074105;28;20516;-79
2021/08/21 09:09:16;;;;;;;5.20;4.70;;;;;;;31.09;33.34;95043.50;5074181;28;20448;-79
2021/08/21 09:11:46;;;;;;;5.73;5.13;;;;;;;31.02;32.95;95037.47;5039323;28;20475;-79
2021/08/21 09:14:19;;;;;;;4.33;4.00;;;;;;;30.87;32.26;95031.03;5038788;28;20455;-79
2021/08/21 09:16:46;;;;;;;5.10;4.77;;;;;;;30.13;33.05;95036.81;5073945;28;21031;-79
2021/08/21 09:19:13;;;;;;;4.37;4.07;;;;;;;30.37;32.77;95029.28;5074075;28;20535;-79
2021/08/21 09:21:58;;;;;;;4.83;4.33;;;;;;;30.46;33.02;95025.06;5055426;28;20443;-80
2021/08/21 09:24:26;;;;;;;4.73;4.33;;;;;;;30.57;32.59;95034.16;5073575;28;20441;-79
2021/08/21 09:26:54;;;;;;;5.00;4.60;;;;;;;30.16;32.00;95030.88;5055102;28;20992;-79
2021/08/21 09:29:27;;;;;;;4.97;4.57;;;;;;;29.79;33.85;95020.56;5073961;28;20558;-79
2021/08/21 09:32:06;;;;;;;5.83;4.93;;;;;;;29.85;32.33;95022.28;5073950;28;20449;-79
2021/08/21 09:34:33;;;;;;;4.50;4.20;;;;;;;29.98;32.00;95029.22;5073755;28;20459;-79
2021/08/21 09:37:01;;;;;;;5.63;4.90;;;;;;;29.96;32.40;95020.53;5038522;28;20453;-79
2021/08/21 09:39:37;;;;;;;4.83;4.43;;;;;;;30.16;31.74;95014.66;5073875;28;20806;-79
2021/08/21 09:42:08;;;;;;;4.63;4.33;;;;;;;30.28;32.40;95011.81;5073434;28;20451;-79
2021/08/21 09:44:36;;;;;;;4.43;4.03;;;;;;;30.30;31.67;95010.50;5073436;28;20441;-79
2021/08/21 09:47:26;;;;;;;4.37;4.07;;;;;;;30.40;31.15;95017.97;5038837;28;20484;-79
2021/08/21 09:49:54;;;;;;;5.30;4.80;;;;;;;30.34;31.75;95010.81;5011775;28;20447;-79
2021/08/21 09:52:21;;;;;;;6.43;5.77;;;;;;;30.15;31.77;95010.31;5011593;28;20521;-79
2021/08/21 09:55:03;;;;;;;5.43;4.93;;;;;;;29.77;32.32;95019.97;4963067;28;20526;-79
2021/08/21 09:57:32;;;;;;;6.37;5.27;;;;;;;29.95;33.10;95012.66;5011476;28;20855;-79
2021/08/21 10:00:00;;;;;;;6.43;5.83;;;;;;;30.08;32.62;95009.66;4962636;28;20442;-80
2021/08/21 10:02:33;;;;;;;5.60;5.20;;;;;;;30.23;32.83;95009.03;5011288;28;20450;-79
2021/08/21 10:05:03;;;;;;;6.13;5.63;;;;;;;29.93;32.50;95004.78;5011532;28;20439;-79
2021/08/21 10:07:34;;;;;;;8.30;5.27;;;;;;;29.92;33.07;95013.97;5011191;28;20483;-79
2021/08/21 10:10:02;;;;;;;5.23;4.73;;;;;;;29.97;33.14;95015.94;5010601;28;20478;-79
2021/08/21 10:12:31;;;;;;;5.33;4.93;;;;;;;30.04;32.98;95011.19;5011303;28;20479;-79
2021/08/21 10:14:59;;;;;;;5.00;4.60;;;;;;;30.15;33.16;95011.13;5011175;28;21009;-79
2021/08/21 10:17:28;;;;;;;5.57;5.07;;;;;;;30.27;33.19;95011.00;5011326;28;20439;-79
2021/08/21 10:19:56;;;;;;;5.80;5.30;;;;;;;30.12;32.37;95014.31;5011245;28;20892;-79
2021/08/21 10:22:27;;;;;;;5.83;5.30;;;;;;;30.00;32.13;95008.13;5011105;28;20479;-79
2021/08/21 10:24:55;;;;;;;5.40;4.70;;;;;;;29.78;34.37;95018.06;5011070;28;20446;-79
2021/08/21 10:27:28;;;;;;;5.17;4.77;;;;;;;29.39;34.18;95017.94;5055221;28;20483;-78
2021/08/21 10:30:04;;;;;;;5.57;5.07;;;;;;;29.64;34.26;95004.06;5073098;28;20824;-79
2021/08/21 10:32:32;;;;;;;5.93;5.43;;;;;;;29.79;33.55;95003.50;5037599;28;20453;-79
2021/08/21 10:35:00;;;;;;;5.70;5.20;;;;;;;29.88;32.77;94996.59;5072864;28;20445;-79
2021/08/21 10:37:35;;;;;;;5.73;5.23;;;;;;;29.98;32.55;95002.16;5073241;28;20449;-79
2021/08/21 10:40:44;;;;;;;5.87;5.30;;;;;;;30.00;32.07;95002.72;5073103;28;20475;-79
2021/08/21 10:43:10;;;;;;;6.07;5.57;;;;;;;30.02;32.79;94995.19;4952572;29;20446;-79
2021/08/21 10:45:47;;;;;;;5.93;5.30;;;;;;;30.13;33.08;94993.50;4952806;29;20515;-79
2021/08/21 10:48:35;;;;;;;6.20;5.70;;;;;;;30.19;31.90;94989.78;4952333;29;20549;-79
2021/08/21 10:51:04;;;;;;;6.83;6.33;;;;;;;30.37;32.34;94994.09;4952723;29;20533;-80
2021/08/21 10:53:32;;;;;;;10.53;6.20;;;;;;;30.47;32.39;94986.09;4952649;29;20494;-80
2021/08/21 10:56:01;;;;;;;5.37;4.87;;;;;;;30.58;31.96;94985.13;4905675;29;20822;-79
2021/08/21 10:58:29;;;;;;;6.13;5.70;;;;;;;30.71;31.46;94979.38;4904575;29;20946;-79
2021/08/21 11:01:02;;;;;;;7.33;5.03;;;;;;;30.65;30.68;94984.97;4904612;29;20443;-79
2021/08/21 11:03:46;;;;;;;5.67;5.23;;;;;;;30.73;30.85;94976.41;4952414;29;21057;-79
2021/08/21 11:06:15;;;;;;;5.60;5.10;;;;;;;30.76;30.75;94978.63;4952400;29;20449;-79
2021/08/21 11:08:59;;;;;;;6.00;4.87;;;;;;;30.68;30.72;94974.47;4952388;29;20503;-79
2021/08/21 11:11:32;;;;;;;6.13;5.60;;;;;;;30.47;29.64;94973.38;4951979;29;20488;-79
2021/08/21 11:14:02;;;;;;;7.40;6.30;;;;;;;30.15;29.67;94975.94;4952345;29;20497;-79
2021/08/21 11:16:51;;;;;;;6.77;6.17;;;;;;;30.19;29.29;94977.06;4952287;29;20454;-79
2021/08/21 11:19:55;;;;;;;7.27;6.57;;;;;;;30.26;29.96;94971.47;5000288;28;20472;-79
2021/08/21 11:22:29;;;;;;;8.00;6.30;;;;;;;30.06;28.59;94958.44;5014289;28;20461;-79
2021/08/21 11:25:10;;;;;;;8.17;6.93;;;;;;;30.12;28.30;94962.91;5014367;28;20549;-80
2021/08/21 11:27:44;;;;;;;7.93;6.60;;;;;;;30.15;29.40;94961.56;5014305;28;20533;-79
2021/08/21 11:30:26;;;;;;;6.80;6.30;;;;;;;30.19;30.02;94960.81;5014106;28;20446;-79
2021/08/21 11:33:21;;;;;;;7.03;6.33;;;;;;;30.36;30.38;94951.81;5014161;28;20533;-79
2021/08/21 11:35:51;;;;;;;7.17;6.57;;;;;;;30.47;29.52;94956.28;4936655;29;20823;-79
2021/08/21 11:38:27;;;;;;;6.50;5.97;;;;;;;30.66;30.49;94956.84;4890640;29;20953;-79
2021/08/21 11:40:56;;;;;;;8.13;7.33;;;;;;;30.71;30.75;94951.47;4936576;29;20546;-79